Aérodrome :
LOGIN :

S'inscrire | Disclaimer

   EN    FR    IT 

 










Légende :    VFR   VFR Marginal   IFR   IFR Intensif   IFR Très Intensif
Visi : 
Plafond : 
>= 8 km
>= 3000ft
5 à 8 km
1000 à 3000 ft
1500m à 5 km
500 à 1000 ft
800 à 1500m
200 à 500 ft
< 800m
< 200 ft
Symboles :   Orages  Brouillard  Fortes neiges  Fortes précipitations  Vent > 20 kt
SIGMETs :   Divers  Orages  Givrage  Turbulence  Onde Orograph.  Cendres Volcan.






- Altitude de l'aérodrome : 11 ft
- Code IATA : MJV


LELC - Murcia San Javier

DERNIER METAR :
  • 031200Z 19011KT 150V240 9999 FEW020 26/17 Q1009 NOSIG

METARs EXPIRÉS :
  • 031130Z 19008KT 150V230 9999 FEW020 26/18 Q1010 NOSIG
  • 031100Z 15008KT 110V200 9999 FEW020 25/18 Q1010 NOSIG
  • 031030Z 14005KT 090V200 9999 FEW020 26/18 Q1010 NOSIG
  • 031000Z 13006KT 9999 FEW020 24/18 Q1010 NOSIG
  • 030930Z 13005KT 080V170 9999 FEW015 24/19 Q1011 NOSIG

TAF TAF LELC
Valide du 03 à 12h jusqu'au 04 à 12h UTC


031100Z 0312/0412 20012KT 9999 FEW020 TX27/0313Z TN18/0406Z
BECMG 0319/0321 28006KT



MET'MAP, la Météo Aéronautique d'un coup d'oeil ! - Copyright ORBIFLY Décembre 2007 - Disclaimer

ORBIFLY MET'MAP TEAM :

Programmation & Développement : Alexandra Zaïnal
Sur une idée originale de : Baudouin d'Aumeries
Assistance à la programmation : Marc-Olivier Méhu
Soutien technique & logistique : Manuel Goepfert

Contact : metmap@orbifly.com




SOURCES & CREDITS :

   NOAA